createdAt,value
2023-03-14T05:43:47.496Z,12.40
2023-03-14T05:46:15.396Z,14.10
2023-03-14T05:48:43.415Z,13.45
2023-03-14T05:53:38.290Z,11.63
2023-03-14T05:56:11.401Z,13.05
2023-03-14T05:58:39.651Z,13.43
2023-03-14T06:01:07.969Z,13.55
2023-03-14T06:03:36.307Z,13.30
2023-03-14T06:06:04.681Z,11.70
2023-03-14T06:08:32.564Z,12.18
2023-03-14T06:11:00.491Z,13.48
2023-03-14T06:13:28.477Z,11.98
2023-03-14T06:15:55.869Z,11.90
2023-03-14T06:18:23.663Z,13.07
2023-03-14T06:20:56.666Z,11.35
2023-03-14T06:23:26.282Z,12.93
2023-03-14T06:25:54.010Z,12.05
2023-03-14T06:28:21.848Z,10.60
2023-03-14T06:30:49.895Z,13.18
2023-03-14T06:33:17.468Z,11.90
2023-03-14T06:35:45.333Z,10.27
2023-03-14T06:38:13.249Z,15.10
2023-03-14T06:40:40.700Z,11.70
2023-03-14T06:43:09.090Z,15.50
2023-03-14T06:45:37.516Z,13.10
2023-03-14T06:48:05.295Z,9.85
2023-03-14T06:50:33.415Z,12.63
2023-03-14T06:53:01.127Z,9.63
2023-03-14T06:55:30.227Z,14.10
2023-03-14T06:57:57.764Z,13.85
2023-03-14T07:00:26.088Z,11.15
2023-03-14T07:02:53.809Z,13.85
2023-03-14T07:05:22.444Z,11.63
2023-03-14T07:07:50.306Z,13.10
2023-03-14T07:10:18.755Z,12.65
2023-03-14T07:12:46.172Z,12.30
2023-03-14T07:15:18.879Z,13.32
2023-03-14T07:17:49.181Z,14.57
2023-03-14T07:20:18.913Z,11.93
2023-03-14T07:22:49.632Z,9.48
2023-03-14T07:25:18.496Z,10.45
2023-03-14T07:27:46.894Z,14.30
2023-03-14T07:30:15.044Z,12.77
2023-03-14T07:32:42.845Z,12.75
2023-03-14T07:35:10.792Z,14.50
2023-03-14T07:37:38.590Z,12.60
2023-03-14T07:40:08.317Z,13.00
2023-03-14T07:42:36.165Z,12.15
2023-03-14T07:45:10.572Z,12.45
2023-03-14T07:47:38.150Z,10.68
2023-03-14T07:50:06.642Z,10.93
2023-03-14T07:52:35.315Z,12.70
2023-03-14T07:55:02.799Z,12.37
2023-03-14T07:57:30.510Z,11.23
2023-03-14T07:59:58.004Z,12.18
2023-03-14T08:02:25.710Z,9.93
2023-03-14T08:04:53.791Z,11.40
2023-03-14T08:07:21.185Z,14.48
2023-03-14T08:09:48.609Z,12.20
2023-03-14T08:12:17.449Z,10.23
2023-03-14T08:14:45.119Z,9.27
2023-03-14T08:17:12.703Z,10.18
2023-03-14T08:19:42.380Z,14.13
2023-03-14T08:22:09.760Z,9.75
2023-03-14T08:24:37.204Z,10.10
2023-03-14T08:27:05.056Z,9.98
2023-03-14T08:29:32.583Z,12.43
2023-03-14T08:32:00.125Z,10.98
2023-03-14T08:34:27.880Z,11.20
2023-03-14T08:36:57.785Z,9.63
2023-03-14T09:11:29.717Z,8.25
2023-03-14T09:13:57.134Z,6.87
2023-03-14T09:16:25.030Z,8.45
2023-03-14T09:19:00.621Z,7.60
2023-03-14T09:21:28.522Z,7.32
2023-03-14T09:23:55.977Z,7.40
2023-03-14T09:26:23.346Z,6.68
2023-03-14T09:28:51.047Z,11.68
2023-03-14T09:31:18.641Z,6.87
2023-03-14T09:33:46.187Z,8.20
2023-03-14T09:36:13.916Z,12.07
2023-03-14T09:38:41.613Z,9.77
2023-03-14T09:41:16.653Z,10.00
2023-03-14T09:43:46.605Z,7.15
2023-03-14T09:46:15.758Z,4.50
2023-03-14T09:48:44.457Z,5.30
2023-03-14T09:51:15.625Z,4.05
2023-03-14T09:53:45.670Z,4.28
2023-03-14T09:56:32.159Z,2.37
2023-03-14T09:59:01.521Z,4.00
2023-03-14T10:01:32.782Z,3.65
2023-03-14T10:04:05.645Z,3.78
2023-03-14T10:06:33.278Z,4.85
2023-03-14T10:09:02.002Z,6.28
2023-03-14T10:11:29.738Z,2.20
2023-03-14T10:14:09.357Z,5.40
2023-03-14T10:16:41.718Z,6.10
2023-03-14T10:19:14.598Z,5.90
2023-03-14T10:21:53.919Z,4.30
2023-03-14T10:24:33.376Z,4.95
2023-03-14T10:27:03.368Z,3.62
2023-03-14T10:29:32.851Z,3.67
2023-03-14T10:32:06.102Z,2.78
2023-03-14T10:34:36.232Z,4.20
2023-03-14T10:37:19.476Z,2.87
2023-03-14T10:39:49.537Z,7.07
2023-03-14T10:42:34.989Z,2.55
2023-03-14T10:45:11.052Z,6.75
2023-03-14T10:47:50.163Z,3.45
2023-03-14T10:50:25.517Z,5.57
2023-03-14T10:53:03.053Z,3.30
2023-03-14T10:55:40.828Z,3.35
2023-03-14T10:58:40.554Z,3.35
2023-03-14T11:01:27.132Z,4.03
2023-03-14T11:04:02.206Z,4.72
2023-03-14T11:06:54.396Z,2.10
2023-03-14T11:09:48.185Z,3.53
2023-03-14T11:12:47.202Z,5.57
2023-03-14T11:15:38.036Z,3.25
2023-03-14T11:18:21.009Z,2.40
2023-03-14T11:20:57.062Z,1.77
2023-03-14T11:23:30.660Z,2.22
2023-03-14T11:25:58.602Z,3.62
2023-03-14T11:28:39.554Z,1.10
2023-03-14T11:31:28.222Z,2.92
2023-03-14T11:34:03.212Z,3.55
